Sneads, FL (32460)

10:50 PM CST on December 27, 2014 (GMT -0600)
Cypress | Change Station
CLOSE
Current Station
Personal Weather Station
Location: Marianna, FL
Elevation: 138 ft
Nearby Weather Stations

Elev 138 ft 30.67 °N, 85.07 °W | Updated 19 seconds ago

Mostly Cloudy
Mostly Cloudy
56.3 °F
Feels Like 56.3 °F
N
0.0
Wind Variable Wind from SE
Gusts 1.0 mph

Today
High -- | Low -- °F
--% Chance of Precip.
Yesterday
High -- | Low -- °F
Precip. -- in
6:35 AM 4:46 PM
Waxing Crescent, 43% visible
Pressure 30.20 in
Visibility 10.0 miles
Clouds Clear
Dew Point 54 °F
Humidity 96%
Rainfall 0.00 in
Snow Depth Not available.
UV 0 out of 12
Pollen 2.80 out of 12
Air Quality Not available.
Flu Activity Not available.
METAR KMAI 280353Z AUTO 19004KT 10SM CLR 13/13 A3020 RMK AO2 SLP225 T01330133 PNO $

More Conditions Fewer Conditions

Pressure 30.20 in
Visibility 10.0 miles
Clouds Clear
Dew Point 54 °F
Humidity 96%
Rainfall 0.00 in
Snow Depth Not available.
UV 0 out of 12
Pollen 2.80 out of 12
Air Quality Not available.
Flu Activity Not available.
METAR KMAI 280353Z AUTO 19004KT 10SM CLR 13/13 A3020 RMK AO2 SLP225 T01330133 PNO $

More Conditions Fewer Conditions

10-Day Weather Forecast

Almanac

Astronomy

Dec. 27, 2014 Rise Set
Actual Time
Civil Twilight
Nautical Twilight
Astronomical Twilight
Moon
Length of Visible Light
Length of Day
Tomorrow will be .
, % of the Moon is Illuminated

Today's Extremes

State Highs State Lows

Community

WunderPhotos

Upload Photos

1,781,196 photos uploaded!

WunderBlogs® & News

Nearby

Air Quality

  Air Quality AQ Index Pollutant
Not available.

Snow Depth

Station Depth Elevation

Earthquake Activity

City Distance Mag. Time & Date
Minimum magnitude displayed is 2.5.

Coastal Water Temperatures

Place Temperature

Nearby Weather Stations